sensor_id;sensor_type;location;lat;lon;timestamp;P1;durP1;ratioP1;P2;durP2;ratioP2
23952;SDS011;12163;49.316;6.092;2023-04-24T00:02:21;2.97;;;1.30;;
23952;SDS011;12163;49.316;6.092;2023-04-24T00:04:48;1.70;;;1.20;;
23952;SDS011;12163;49.316;6.092;2023-04-24T00:07:15;5.10;;;1.85;;
23952;SDS011;12163;49.316;6.092;2023-04-24T00:09:46;3.35;;;1.48;;
23952;SDS011;12163;49.316;6.092;2023-04-24T00:12:13;3.63;;;1.60;;
23952;SDS011;12163;49.316;6.092;2023-04-24T00:14:39;2.63;;;1.60;;
23952;SDS011;12163;49.316;6.092;2023-04-24T00:17:06;9.80;;;1.80;;
23952;SDS011;12163;49.316;6.092;2023-04-24T00:19:33;9.02;;;1.75;;
23952;SDS011;12163;49.316;6.092;2023-04-24T00:21:59;2.42;;;2.03;;
23952;SDS011;12163;49.316;6.092;2023-04-24T00:24:26;6.03;;;2.10;;
23952;SDS011;12163;49.316;6.092;2023-04-24T00:26:53;4.32;;;2.40;;
23952;SDS011;12163;49.316;6.092;2023-04-24T00:29:19;2.40;;;2.20;;
23952;SDS011;12163;49.316;6.092;2023-04-24T00:31:46;5.57;;;2.40;;
23952;SDS011;12163;49.316;6.092;2023-04-24T00:34:13;4.13;;;2.28;;
23952;SDS011;12163;49.316;6.092;2023-04-24T00:36:39;3.85;;;2.40;;
23952;SDS011;12163;49.316;6.092;2023-04-24T00:39:06;3.88;;;2.53;;
23952;SDS011;12163;49.316;6.092;2023-04-24T00:41:35;5.63;;;2.33;;
23952;SDS011;12163;49.316;6.092;2023-04-24T00:44:01;4.15;;;2.47;;
23952;SDS011;12163;49.316;6.092;2023-04-24T00:46:28;4.18;;;2.60;;
23952;SDS011;12163;49.316;6.092;2023-04-24T00:48:55;4.10;;;2.50;;
23952;SDS011;12163;49.316;6.092;2023-04-24T00:51:22;4.40;;;2.70;;
23952;SDS011;12163;49.316;6.092;2023-04-24T00:53:50;4.72;;;2.40;;
23952;SDS011;12163;49.316;6.092;2023-04-24T00:56:18;4.07;;;2.42;;
23952;SDS011;12163;49.316;6.092;2023-04-24T00:58:46;3.78;;;2.72;;
23952;SDS011;12163;49.316;6.092;2023-04-24T01:01:13;4.70;;;2.50;;
23952;SDS011;12163;49.316;6.092;2023-04-24T01:03:40;4.10;;;2.60;;
23952;SDS011;12163;49.316;6.092;2023-04-24T01:06:07;6.70;;;2.83;;
23952;SDS011;12163;49.316;6.092;2023-04-24T01:08:36;3.55;;;2.55;;
23952;SDS011;12163;49.316;6.092;2023-04-24T01:11:06;5.32;;;2.90;;
23952;SDS011;12163;49.316;6.092;2023-04-24T01:13:32;6.20;;;2.60;;
23952;SDS011;12163;49.316;6.092;2023-04-24T01:16:00;3.20;;;2.38;;
23952;SDS011;12163;49.316;6.092;2023-04-24T01:18:27;4.68;;;2.63;;
23952;SDS011;12163;49.316;6.092;2023-04-24T01:20:56;4.32;;;2.58;;
23952;SDS011;12163;49.316;6.092;2023-04-24T01:23:24;7.20;;;2.95;;
23952;SDS011;12163;49.316;6.092;2023-04-24T01:25:51;5.00;;;2.78;;
23952;SDS011;12163;49.316;6.092;2023-04-24T01:28:18;4.47;;;2.97;;
23952;SDS011;12163;49.316;6.092;2023-04-24T01:30:45;5.25;;;3.20;;
23952;SDS011;12163;49.316;6.092;2023-04-24T01:33:12;5.88;;;3.70;;
23952;SDS011;12163;49.316;6.092;2023-04-24T01:35:39;5.32;;;3.17;;
23952;SDS011;12163;49.316;6.092;2023-04-24T01:38:06;7.45;;;3.50;;
23952;SDS011;12163;49.316;6.092;2023-04-24T01:40:32;4.63;;;4.00;;
23952;SDS011;12163;49.316;6.092;2023-04-24T01:43:00;6.28;;;4.20;;
23952;SDS011;12163;49.316;6.092;2023-04-24T01:45:26;5.63;;;4.15;;
23952;SDS011;12163;49.316;6.092;2023-04-24T01:47:53;7.70;;;3.90;;
23952;SDS011;12163;49.316;6.092;2023-04-24T01:50:20;5.18;;;3.80;;
23952;SDS011;12163;49.316;6.092;2023-04-24T01:52:46;7.15;;;4.68;;
23952;SDS011;12163;49.316;6.092;2023-04-24T01:55:13;4.82;;;4.32;;
23952;SDS011;12163;49.316;6.092;2023-04-24T01:57:39;7.70;;;4.15;;
23952;SDS011;12163;49.316;6.092;2023-04-24T02:00:06;8.68;;;4.28;;
23952;SDS011;12163;49.316;6.092;2023-04-24T02:02:33;9.15;;;4.60;;
23952;SDS011;12163;49.316;6.092;2023-04-24T02:05:01;9.68;;;5.15;;
23952;SDS011;12163;49.316;6.092;2023-04-24T02:07:27;8.05;;;4.90;;
23952;SDS011;12163;49.316;6.092;2023-04-24T02:09:54;7.93;;;4.90;;
23952;SDS011;12163;49.316;6.092;2023-04-24T02:12:21;6.63;;;4.60;;
23952;SDS011;12163;49.316;6.092;2023-04-24T02:14:48;9.48;;;5.32;;
23952;SDS011;12163;49.316;6.092;2023-04-24T02:17:14;9.32;;;5.68;;
23952;SDS011;12163;49.316;6.092;2023-04-24T02:19:42;7.10;;;5.28;;
23952;SDS011;12163;49.316;6.092;2023-04-24T02:22:09;9.48;;;5.40;;
23952;SDS011;12163;49.316;6.092;2023-04-24T02:24:37;9.50;;;5.63;;
23952;SDS011;12163;49.316;6.092;2023-04-24T02:27:03;7.18;;;5.80;;
23952;SDS011;12163;49.316;6.092;2023-04-24T02:29:30;7.10;;;5.47;;
23952;SDS011;12163;49.316;6.092;2023-04-24T02:31:57;10.20;;;6.63;;
23952;SDS011;12163;49.316;6.092;2023-04-24T02:34:23;11.80;;;6.28;;
23952;SDS011;12163;49.316;6.092;2023-04-24T02:36:50;11.45;;;6.35;;
23952;SDS011;12163;49.316;6.092;2023-04-24T02:39:17;10.85;;;6.53;;
23952;SDS011;12163;49.316;6.092;2023-04-24T02:41:44;9.07;;;6.75;;
23952;SDS011;12163;49.316;6.092;2023-04-24T02:44:11;7.82;;;6.40;;
23952;SDS011;12163;49.316;6.092;2023-04-24T02:46:38;8.32;;;6.60;;
23952;SDS011;12163;49.316;6.092;2023-04-24T02:49:04;12.05;;;6.72;;
23952;SDS011;12163;49.316;6.092;2023-04-24T02:51:31;7.35;;;6.32;;
23952;SDS011;12163;49.316;6.092;2023-04-24T02:53:57;15.15;;;7.30;;
23952;SDS011;12163;49.316;6.092;2023-04-24T02:56:24;10.02;;;7.18;;
23952;SDS011;12163;49.316;6.092;2023-04-24T02:58:50;10.65;;;6.68;;
23952;SDS011;12163;49.316;6.092;2023-04-24T03:01:17;11.77;;;6.80;;
23952;SDS011;12163;49.316;6.092;2023-04-24T03:03:44;10.65;;;6.57;;
23952;SDS011;12163;49.316;6.092;2023-04-24T03:06:11;9.98;;;6.72;;
23952;SDS011;12163;49.316;6.092;2023-04-24T03:08:37;8.68;;;6.45;;
23952;SDS011;12163;49.316;6.092;2023-04-24T03:11:04;10.27;;;6.18;;
23952;SDS011;12163;49.316;6.092;2023-04-24T03:13:31;16.60;;;6.53;;
23952;SDS011;12163;49.316;6.092;2023-04-24T03:15:57;11.57;;;6.75;;
23952;SDS011;12163;49.316;6.092;2023-04-24T03:18:24;10.70;;;7.10;;
23952;SDS011;12163;49.316;6.092;2023-04-24T03:20:51;7.47;;;5.97;;
23952;SDS011;12163;49.316;6.092;2023-04-24T03:23:18;8.60;;;6.55;;
23952;SDS011;12163;49.316;6.092;2023-04-24T03:25:44;9.18;;;6.90;;
23952;SDS011;12163;49.316;6.092;2023-04-24T03:28:11;12.57;;;6.55;;
23952;SDS011;12163;49.316;6.092;2023-04-24T03:30:38;9.88;;;7.43;;
23952;SDS011;12163;49.316;6.092;2023-04-24T03:33:04;12.30;;;7.07;;
23952;SDS011;12163;49.316;6.092;2023-04-24T03:35:31;10.20;;;6.82;;
23952;SDS011;12163;49.316;6.092;2023-04-24T03:37:57;9.52;;;7.20;;
23952;SDS011;12163;49.316;6.092;2023-04-24T03:40:24;13.63;;;7.22;;
23952;SDS011;12163;49.316;6.092;2023-04-24T03:42:51;11.35;;;6.93;;
23952;SDS011;12163;49.316;6.092;2023-04-24T03:45:17;12.23;;;7.38;;
23952;SDS011;12163;49.316;6.092;2023-04-24T03:47:44;11.95;;;7.25;;
23952;SDS011;12163;49.316;6.092;2023-04-24T03:50:10;10.75;;;7.28;;
23952;SDS011;12163;49.316;6.092;2023-04-24T03:52:38;12.07;;;7.10;;
23952;SDS011;12163;49.316;6.092;2023-04-24T03:55:05;9.52;;;6.85;;
23952;SDS011;12163;49.316;6.092;2023-04-24T03:57:32;9.13;;;7.30;;
23952;SDS011;12163;49.316;6.092;2023-04-24T03:59:59;9.98;;;6.95;;
23952;SDS011;12163;49.316;6.092;2023-04-24T04:02:26;10.57;;;6.68;;
23952;SDS011;12163;49.316;6.092;2023-04-24T04:04:52;9.55;;;7.20;;
23952;SDS011;12163;49.316;6.092;2023-04-24T04:07:19;9.55;;;6.50;;
23952;SDS011;12163;49.316;6.092;2023-04-24T04:09:46;8.88;;;6.88;;
23952;SDS011;12163;49.316;6.092;2023-04-24T04:12:12;9.07;;;6.35;;
23952;SDS011;12163;49.316;6.092;2023-04-24T04:14:39;10.80;;;6.85;;
23952;SDS011;12163;49.316;6.092;2023-04-24T04:17:06;9.25;;;6.40;;
23952;SDS011;12163;49.316;6.092;2023-04-24T04:19:32;9.35;;;6.40;;
23952;SDS011;12163;49.316;6.092;2023-04-24T04:21:59;10.32;;;6.05;;
23952;SDS011;12163;49.316;6.092;2023-04-24T04:24:25;10.55;;;5.95;;
23952;SDS011;12163;49.316;6.092;2023-04-24T04:26:52;9.88;;;6.20;;
23952;SDS011;12163;49.316;6.092;2023-04-24T04:29:22;9.93;;;6.57;;
23952;SDS011;12163;49.316;6.092;2023-04-24T04:31:50;9.43;;;6.68;;
23952;SDS011;12163;49.316;6.092;2023-04-24T04:34:17;11.60;;;7.00;;
23952;SDS011;12163;49.316;6.092;2023-04-24T04:36:43;9.38;;;6.85;;
23952;SDS011;12163;49.316;6.092;2023-04-24T04:39:10;8.93;;;6.40;;
23952;SDS011;12163;49.316;6.092;2023-04-24T04:41:37;11.40;;;6.22;;
23952;SDS011;12163;49.316;6.092;2023-04-24T04:44:06;12.63;;;6.97;;
23952;SDS011;12163;49.316;6.092;2023-04-24T04:46:35;11.88;;;6.97;;
23952;SDS011;12163;49.316;6.092;2023-04-24T04:49:03;8.73;;;6.65;;
23952;SDS011;12163;49.316;6.092;2023-04-24T04:51:30;7.43;;;6.40;;
23952;SDS011;12163;49.316;6.092;2023-04-24T04:53:57;9.80;;;6.05;;
23952;SDS011;12163;49.316;6.092;2023-04-24T04:56:23;8.70;;;6.00;;
23952;SDS011;12163;49.316;6.092;2023-04-24T04:58:50;8.27;;;6.32;;
23952;SDS011;12163;49.316;6.092;2023-04-24T05:01:17;7.43;;;5.53;;
23952;SDS011;12163;49.316;6.092;2023-04-24T05:03:50;6.85;;;4.90;;
23952;SDS011;12163;49.316;6.092;2023-04-24T05:06:17;11.18;;;5.43;;
23952;SDS011;12163;49.316;6.092;2023-04-24T05:08:44;10.30;;;5.78;;
23952;SDS011;12163;49.316;6.092;2023-04-24T05:11:11;9.75;;;5.18;;
23952;SDS011;12163;49.316;6.092;2023-04-24T05:13:38;7.22;;;5.20;;
23952;SDS011;12163;49.316;6.092;2023-04-24T05:16:06;8.23;;;5.82;;
23952;SDS011;12163;49.316;6.092;2023-04-24T05:18:33;14.50;;;5.47;;
23952;SDS011;12163;49.316;6.092;2023-04-24T05:21:00;9.02;;;5.05;;
23952;SDS011;12163;49.316;6.092;2023-04-24T05:23:27;8.80;;;4.90;;
23952;SDS011;12163;49.316;6.092;2023-04-24T05:25:54;7.43;;;5.15;;
23952;SDS011;12163;49.316;6.092;2023-04-24T05:28:20;9.82;;;5.38;;
23952;SDS011;12163;49.316;6.092;2023-04-24T05:30:47;8.20;;;5.18;;
23952;SDS011;12163;49.316;6.092;2023-04-24T05:33:14;7.97;;;4.93;;
23952;SDS011;12163;49.316;6.092;2023-04-24T05:35:40;7.72;;;4.47;;
23952;SDS011;12163;49.316;6.092;2023-04-24T05:38:12;6.15;;;4.10;;
23952;SDS011;12163;49.316;6.092;2023-04-24T05:40:39;5.88;;;3.80;;
23952;SDS011;12163;49.316;6.092;2023-04-24T05:43:06;6.97;;;4.05;;
23952;SDS011;12163;49.316;6.092;2023-04-24T05:45:32;7.38;;;4.13;;
23952;SDS011;12163;49.316;6.092;2023-04-24T05:48:02;8.15;;;4.28;;
23952;SDS011;12163;49.316;6.092;2023-04-24T05:50:29;7.60;;;4.40;;
23952;SDS011;12163;49.316;6.092;2023-04-24T05:52:56;4.97;;;3.58;;
23952;SDS011;12163;49.316;6.092;2023-04-24T05:55:27;10.60;;;3.28;;
23952;SDS011;12163;49.316;6.092;2023-04-24T05:57:54;5.97;;;3.60;;
23952;SDS011;12163;49.316;6.092;2023-04-24T06:00:21;7.97;;;3.65;;
23952;SDS011;12163;49.316;6.092;2023-04-24T06:02:48;9.50;;;4.07;;
23952;SDS011;12163;49.316;6.092;2023-04-24T06:05:15;6.25;;;4.00;;
23952;SDS011;12163;49.316;6.092;2023-04-24T06:07:42;5.95;;;3.45;;
23952;SDS011;12163;49.316;6.092;2023-04-24T06:10:08;6.15;;;3.90;;
23952;SDS011;12163;49.316;6.092;2023-04-24T06:12:36;5.90;;;3.83;;
23952;SDS011;12163;49.316;6.092;2023-04-24T06:15:03;5.25;;;3.92;;
23952;SDS011;12163;49.316;6.092;2023-04-24T06:17:30;8.90;;;4.30;;
23952;SDS011;12163;49.316;6.092;2023-04-24T06:19:57;7.10;;;4.38;;
23952;SDS011;12163;49.316;6.092;2023-04-24T06:22:23;8.40;;;4.75;;
23952;SDS011;12163;49.316;6.092;2023-04-24T06:24:50;10.40;;;4.85;;
23952;SDS011;12163;49.316;6.092;2023-04-24T06:27:16;6.45;;;4.80;;
23952;SDS011;12163;49.316;6.092;2023-04-24T06:29:43;9.13;;;5.00;;
23952;SDS011;12163;49.316;6.092;2023-04-24T06:32:10;9.18;;;4.95;;
23952;SDS011;12163;49.316;6.092;2023-04-24T06:34:37;10.02;;;5.10;;
23952;SDS011;12163;49.316;6.092;2023-04-24T06:37:03;18.05;;;5.78;;
23952;SDS011;12163;49.316;6.092;2023-04-24T06:39:30;10.57;;;5.40;;
23952;SDS011;12163;49.316;6.092;2023-04-24T06:41:56;7.72;;;5.40;;
23952;SDS011;12163;49.316;6.092;2023-04-24T06:44:23;9.85;;;5.63;;
23952;SDS011;12163;49.316;6.092;2023-04-24T06:46:50;9.02;;;5.85;;
23952;SDS011;12163;49.316;6.092;2023-04-24T06:49:16;10.73;;;5.97;;
23952;SDS011;12163;49.316;6.092;2023-04-24T06:51:43;13.98;;;5.97;;
23952;SDS011;12163;49.316;6.092;2023-04-24T06:54:10;14.82;;;6.07;;
23952;SDS011;12163;49.316;6.092;2023-04-24T06:56:36;11.07;;;6.30;;
23952;SDS011;12163;49.316;6.092;2023-04-24T06:59:03;10.15;;;6.25;;
23952;SDS011;12163;49.316;6.092;2023-04-24T07:01:30;12.20;;;6.10;;
23952;SDS011;12163;49.316;6.092;2023-04-24T07:03:57;15.85;;;6.75;;
23952;SDS011;12163;49.316;6.092;2023-04-24T07:06:24;11.25;;;6.32;;
23952;SDS011;12163;49.316;6.092;2023-04-24T07:08:51;10.55;;;6.35;;
23952;SDS011;12163;49.316;6.092;2023-04-24T07:11:18;9.88;;;6.55;;
23952;SDS011;12163;49.316;6.092;2023-04-24T07:13:46;9.60;;;6.55;;
23952;SDS011;12163;49.316;6.092;2023-04-24T07:16:13;9.85;;;6.72;;
23952;SDS011;12163;49.316;6.092;2023-04-24T07:18:39;11.55;;;6.55;;
23952;SDS011;12163;49.316;6.092;2023-04-24T07:21:06;14.07;;;7.43;;
23952;SDS011;12163;49.316;6.092;2023-04-24T07:23:33;11.40;;;6.88;;
23952;SDS011;12163;49.316;6.092;2023-04-24T07:26:00;13.98;;;7.65;;
23952;SDS011;12163;49.316;6.092;2023-04-24T07:28:26;15.75;;;7.90;;
23952;SDS011;12163;49.316;6.092;2023-04-24T07:30:53;9.60;;;6.93;;
23952;SDS011;12163;49.316;6.092;2023-04-24T07:33:20;11.38;;;6.93;;
23952;SDS011;12163;49.316;6.092;2023-04-24T07:35:47;12.13;;;6.80;;
23952;SDS011;12163;49.316;6.092;2023-04-24T07:38:14;14.05;;;7.45;;
23952;SDS011;12163;49.316;6.092;2023-04-24T07:40:41;16.42;;;7.80;;
23952;SDS011;12163;49.316;6.092;2023-04-24T07:43:08;13.18;;;7.47;;
23952;SDS011;12163;49.316;6.092;2023-04-24T07:45:34;14.25;;;7.20;;
23952;SDS011;12163;49.316;6.092;2023-04-24T07:48:03;12.88;;;8.23;;
23952;SDS011;12163;49.316;6.092;2023-04-24T07:50:31;16.50;;;7.63;;
23952;SDS011;12163;49.316;6.092;2023-04-24T07:52:58;13.30;;;7.25;;
23952;SDS011;12163;49.316;6.092;2023-04-24T07:55:24;13.93;;;7.70;;
23952;SDS011;12163;49.316;6.092;2023-04-24T07:57:53;15.05;;;7.13;;
23952;SDS011;12163;49.316;6.092;2023-04-24T08:00:20;13.68;;;7.53;;
23952;SDS011;12163;49.316;6.092;2023-04-24T08:02:47;13.90;;;7.50;;
23952;SDS011;12163;49.316;6.092;2023-04-24T08:05:14;13.63;;;7.65;;
23952;SDS011;12163;49.316;6.092;2023-04-24T08:07:41;15.05;;;7.30;;
23952;SDS011;12163;49.316;6.092;2023-04-24T08:10:12;13.73;;;7.38;;
23952;SDS011;12163;49.316;6.092;2023-04-24T08:12:39;15.73;;;7.90;;
23952;SDS011;12163;49.316;6.092;2023-04-24T08:15:07;12.02;;;6.45;;
23952;SDS011;12163;49.316;6.092;2023-04-24T08:17:34;12.35;;;7.50;;
23952;SDS011;12163;49.316;6.092;2023-04-24T08:20:02;14.70;;;7.50;;
23952;SDS011;12163;49.316;6.092;2023-04-24T08:22:31;15.52;;;7.07;;
23952;SDS011;12163;49.316;6.092;2023-04-24T08:24:59;11.52;;;6.70;;
23952;SDS011;12163;49.316;6.092;2023-04-24T08:27:26;12.57;;;7.22;;
23952;SDS011;12163;49.316;6.092;2023-04-24T08:29:54;12.68;;;6.68;;
23952;SDS011;12163;49.316;6.092;2023-04-24T08:32:21;11.57;;;7.45;;
23952;SDS011;12163;49.316;6.092;2023-04-24T08:34:47;12.30;;;6.97;;
23952;SDS011;12163;49.316;6.092;2023-04-24T08:37:15;12.52;;;6.85;;
23952;SDS011;12163;49.316;6.092;2023-04-24T08:39:41;13.30;;;7.78;;
23952;SDS011;12163;49.316;6.092;2023-04-24T08:42:08;15.65;;;7.03;;
23952;SDS011;12163;49.316;6.092;2023-04-24T08:44:37;12.45;;;6.40;;
23952;SDS011;12163;49.316;6.092;2023-04-24T08:47:04;11.02;;;6.75;;
23952;SDS011;12163;49.316;6.092;2023-04-24T08:49:31;10.65;;;6.72;;
23952;SDS011;12163;49.316;6.092;2023-04-24T08:51:59;9.25;;;6.30;;
23952;SDS011;12163;49.316;6.092;2023-04-24T08:54:28;11.80;;;6.03;;
23952;SDS011;12163;49.316;6.092;2023-04-24T08:56:57;9.57;;;6.20;;
23952;SDS011;12163;49.316;6.092;2023-04-24T08:59:27;14.00;;;6.78;;
23952;SDS011;12163;49.316;6.092;2023-04-24T09:01:54;11.60;;;6.10;;
23952;SDS011;12163;49.316;6.092;2023-04-24T09:04:22;14.55;;;6.18;;
23952;SDS011;12163;49.316;6.092;2023-04-24T09:06:55;9.60;;;5.55;;
23952;SDS011;12163;49.316;6.092;2023-04-24T09:09:23;11.23;;;6.10;;
23952;SDS011;12163;49.316;6.092;2023-04-24T09:11:51;10.85;;;5.93;;
23952;SDS011;12163;49.316;6.092;2023-04-24T09:14:21;10.27;;;5.50;;
23952;SDS011;12163;49.316;6.092;2023-04-24T09:16:50;13.63;;;6.28;;
23952;SDS011;12163;49.316;6.092;2023-04-24T09:19:17;10.82;;;5.78;;
23952;SDS011;12163;49.316;6.092;2023-04-24T09:21:45;10.90;;;5.40;;
23952;SDS011;12163;49.316;6.092;2023-04-24T09:24:16;8.07;;;5.60;;
23952;SDS011;12163;49.316;6.092;2023-04-24T09:26:44;10.95;;;5.97;;
23952;SDS011;12163;49.316;6.092;2023-04-24T09:29:17;14.63;;;5.65;;
23952;SDS011;12163;49.316;6.092;2023-04-24T09:31:45;11.10;;;5.57;;
23952;SDS011;12163;49.316;6.092;2023-04-24T09:34:12;9.60;;;5.28;;
23952;SDS011;12163;49.316;6.092;2023-04-24T09:36:40;7.32;;;5.13;;
23952;SDS011;12163;49.316;6.092;2023-04-24T09:39:09;11.07;;;5.50;;
23952;SDS011;12163;49.316;6.092;2023-04-24T09:41:56;12.93;;;6.03;;
23952;SDS011;12163;49.316;6.092;2023-04-24T09:44:24;9.00;;;5.60;;
23952;SDS011;12163;49.316;6.092;2023-04-24T09:49:29;9.90;;;5.63;;
23952;SDS011;12163;49.316;6.092;2023-04-24T09:52:04;8.48;;;6.05;;
23952;SDS011;12163;49.316;6.092;2023-04-24T09:54:32;8.18;;;5.07;;
23952;SDS011;12163;49.316;6.092;2023-04-24T09:56:59;10.45;;;5.57;;
23952;SDS011;12163;49.316;6.092;2023-04-24T09:59:29;8.52;;;5.50;;
23952;SDS011;12163;49.316;6.092;2023-04-24T10:01:56;10.93;;;6.30;;
23952;SDS011;12163;49.316;6.092;2023-04-24T10:04:25;12.80;;;5.80;;
23952;SDS011;12163;49.316;6.092;2023-04-24T10:06:54;9.23;;;5.82;;
23952;SDS011;12163;49.316;6.092;2023-04-24T10:09:22;10.65;;;5.90;;
23952;SDS011;12163;49.316;6.092;2023-04-24T10:11:51;9.57;;;6.50;;
23952;SDS011;12163;49.316;6.092;2023-04-24T10:14:23;10.63;;;6.03;;
23952;SDS011;12163;49.316;6.092;2023-04-24T10:16:53;10.75;;;6.45;;
23952;SDS011;12163;49.316;6.092;2023-04-24T10:19:21;11.20;;;6.32;;
23952;SDS011;12163;49.316;6.092;2023-04-24T10:21:51;10.30;;;6.22;;
23952;SDS011;12163;49.316;6.092;2023-04-24T10:24:18;10.35;;;6.10;;
23952;SDS011;12163;49.316;6.092;2023-04-24T10:26:48;17.33;;;6.18;;
23952;SDS011;12163;49.316;6.092;2023-04-24T10:29:16;10.18;;;5.80;;
23952;SDS011;12163;49.316;6.092;2023-04-24T10:31:44;13.57;;;6.25;;
23952;SDS011;12163;49.316;6.092;2023-04-24T10:34:14;10.55;;;5.82;;
23952;SDS011;12163;49.316;6.092;2023-04-24T10:36:53;13.75;;;6.10;;
23952;SDS011;12163;49.316;6.092;2023-04-24T10:39:23;13.00;;;6.03;;
23952;SDS011;12163;49.316;6.092;2023-04-24T10:41:53;9.65;;;5.88;;
23952;SDS011;12163;49.316;6.092;2023-04-24T10:44:22;16.75;;;7.07;;
23952;SDS011;12163;49.316;6.092;2023-04-24T10:46:52;14.38;;;5.95;;
23952;SDS011;12163;49.316;6.092;2023-04-24T10:49:30;16.25;;;6.78;;
23952;SDS011;12163;49.316;6.092;2023-04-24T10:52:02;11.50;;;6.43;;
23952;SDS011;12163;49.316;6.092;2023-04-24T10:54:35;11.70;;;6.35;;
23952;SDS011;12163;49.316;6.092;2023-04-24T10:59:46;10.45;;;6.70;;
23952;SDS011;12163;49.316;6.092;2023-04-24T11:02:17;11.02;;;5.97;;
23952;SDS011;12163;49.316;6.092;2023-04-24T11:04:45;14.27;;;6.57;;
23952;SDS011;12163;49.316;6.092;2023-04-24T11:07:12;13.55;;;6.47;;
23952;SDS011;12163;49.316;6.092;2023-04-24T11:09:39;11.82;;;6.68;;
23952;SDS011;12163;49.316;6.092;2023-04-24T11:12:10;11.23;;;6.25;;
23952;SDS011;12163;49.316;6.092;2023-04-24T11:17:32;10.73;;;5.35;;
23952;SDS011;12163;49.316;6.092;2023-04-24T11:22:52;8.55;;;5.18;;
23952;SDS011;12163;49.316;6.092;2023-04-24T11:25:24;11.85;;;5.80;;
23952;SDS011;12163;49.316;6.092;2023-04-24T11:27:51;11.73;;;5.80;;
23952;SDS011;12163;49.316;6.092;2023-04-24T11:30:30;14.80;;;5.47;;
23952;SDS011;12163;49.316;6.092;2023-04-24T11:33:02;7.85;;;5.32;;
23952;SDS011;12163;49.316;6.092;2023-04-24T11:35:30;8.50;;;5.75;;
23952;SDS011;12163;49.316;6.092;2023-04-24T11:38:03;10.80;;;5.40;;
23952;SDS011;12163;49.316;6.092;2023-04-24T11:40:34;8.25;;;4.78;;
23952;SDS011;12163;49.316;6.092;2023-04-24T11:43:01;9.80;;;5.38;;
23952;SDS011;12163;49.316;6.092;2023-04-24T11:45:33;9.25;;;5.45;;
23952;SDS011;12163;49.316;6.092;2023-04-24T11:47:59;11.32;;;5.88;;
23952;SDS011;12163;49.316;6.092;2023-04-24T11:50:26;8.73;;;4.97;;
23952;SDS011;12163;49.316;6.092;2023-04-24T11:52:54;6.97;;;5.07;;
23952;SDS011;12163;49.316;6.092;2023-04-24T12:03:18;10.32;;;6.03;;
23952;SDS011;12163;49.316;6.092;2023-04-24T12:05:44;8.30;;;5.60;;
23952;SDS011;12163;49.316;6.092;2023-04-24T12:08:11;8.38;;;5.05;;
23952;SDS011;12163;49.316;6.092;2023-04-24T12:10:38;7.78;;;4.82;;
23952;SDS011;12163;49.316;6.092;2023-04-24T12:13:05;5.43;;;4.57;;
23952;SDS011;12163;49.316;6.092;2023-04-24T12:15:31;10.35;;;3.65;;
23952;SDS011;12163;49.316;6.092;2023-04-24T12:17:58;5.82;;;3.67;;
23952;SDS011;12163;49.316;6.092;2023-04-24T12:20:29;7.35;;;3.75;;
23952;SDS011;12163;49.316;6.092;2023-04-24T12:22:57;8.02;;;3.60;;
23952;SDS011;12163;49.316;6.092;2023-04-24T12:25:28;9.02;;;3.13;;
23952;SDS011;12163;49.316;6.092;2023-04-24T12:30:32;8.57;;;3.78;;
23952;SDS011;12163;49.316;6.092;2023-04-24T12:33:01;6.38;;;4.03;;
23952;SDS011;12163;49.316;6.092;2023-04-24T12:35:30;6.88;;;4.75;;
23952;SDS011;12163;49.316;6.092;2023-04-24T12:38:09;8.73;;;4.65;;
23952;SDS011;12163;49.316;6.092;2023-04-24T12:40:39;10.32;;;4.80;;
23952;SDS011;12163;49.316;6.092;2023-04-24T12:43:19;6.47;;;4.43;;
23952;SDS011;12163;49.316;6.092;2023-04-24T12:45:47;8.70;;;4.50;;
23952;SDS011;12163;49.316;6.092;2023-04-24T12:48:14;6.43;;;3.70;;
23952;SDS011;12163;49.316;6.092;2023-04-24T12:50:41;6.03;;;3.70;;
23952;SDS011;12163;49.316;6.092;2023-04-24T12:53:12;5.75;;;3.17;;
23952;SDS011;12163;49.316;6.092;2023-04-24T12:55:39;7.10;;;3.40;;
23952;SDS011;12163;49.316;6.092;2023-04-24T12:58:06;8.23;;;3.55;;
23952;SDS011;12163;49.316;6.092;2023-04-24T13:00:33;5.10;;;3.63;;
23952;SDS011;12163;49.316;6.092;2023-04-24T13:03:00;6.68;;;3.90;;
23952;SDS011;12163;49.316;6.092;2023-04-24T13:05:27;7.80;;;4.35;;
23952;SDS011;12163;49.316;6.092;2023-04-24T13:07:54;10.45;;;5.00;;
23952;SDS011;12163;49.316;6.092;2023-04-24T13:10:21;8.30;;;4.47;;
23952;SDS011;12163;49.316;6.092;2023-04-24T13:12:47;7.15;;;4.65;;
23952;SDS011;12163;49.316;6.092;2023-04-24T13:15:14;9.65;;;4.82;;
23952;SDS011;12163;49.316;6.092;2023-04-24T13:17:41;14.63;;;5.65;;
23952;SDS011;12163;49.316;6.092;2023-04-24T13:20:08;11.60;;;4.65;;
23952;SDS011;12163;49.316;6.092;2023-04-24T13:22:35;6.10;;;4.47;;
23952;SDS011;12163;49.316;6.092;2023-04-24T13:25:02;8.55;;;4.55;;
23952;SDS011;12163;49.316;6.092;2023-04-24T13:27:29;7.07;;;4.40;;
23952;SDS011;12163;49.316;6.092;2023-04-24T13:29:55;8.23;;;4.57;;
23952;SDS011;12163;49.316;6.092;2023-04-24T13:32:22;7.80;;;4.38;;
23952;SDS011;12163;49.316;6.092;2023-04-24T13:34:48;7.35;;;3.95;;
23952;SDS011;12163;49.316;6.092;2023-04-24T13:37:15;6.90;;;4.38;;
23952;SDS011;12163;49.316;6.092;2023-04-24T13:39:42;7.68;;;4.20;;
23952;SDS011;12163;49.316;6.092;2023-04-24T13:42:08;6.28;;;4.50;;
23952;SDS011;12163;49.316;6.092;2023-04-24T13:44:35;7.55;;;4.53;;
23952;SDS011;12163;49.316;6.092;2023-04-24T13:47:02;8.10;;;4.22;;
23952;SDS011;12163;49.316;6.092;2023-04-24T13:49:29;6.35;;;4.45;;
23952;SDS011;12163;49.316;6.092;2023-04-24T13:51:55;5.97;;;4.15;;
23952;SDS011;12163;49.316;6.092;2023-04-24T13:54:22;9.43;;;4.80;;
23952;SDS011;12163;49.316;6.092;2023-04-24T13:56:52;7.93;;;4.53;;
23952;SDS011;12163;49.316;6.092;2023-04-24T13:59:19;10.10;;;5.00;;
23952;SDS011;12163;49.316;6.092;2023-04-24T14:01:47;11.13;;;5.30;;
23952;SDS011;12163;49.316;6.092;2023-04-24T14:04:14;9.73;;;5.70;;
23952;SDS011;12163;49.316;6.092;2023-04-24T14:06:41;10.05;;;5.40;;
23952;SDS011;12163;49.316;6.092;2023-04-24T14:09:08;8.10;;;5.45;;
23952;SDS011;12163;49.316;6.092;2023-04-24T14:11:35;8.85;;;5.28;;
23952;SDS011;12163;49.316;6.092;2023-04-24T14:14:02;6.82;;;4.97;;
23952;SDS011;12163;49.316;6.092;2023-04-24T14:16:29;9.68;;;5.55;;
23952;SDS011;12163;49.316;6.092;2023-04-24T14:18:57;8.57;;;5.35;;
23952;SDS011;12163;49.316;6.092;2023-04-24T14:21:23;9.30;;;5.70;;
23952;SDS011;12163;49.316;6.092;2023-04-24T14:23:50;9.57;;;5.88;;
23952;SDS011;12163;49.316;6.092;2023-04-24T14:26:17;9.75;;;6.13;;
23952;SDS011;12163;49.316;6.092;2023-04-24T14:28:43;8.40;;;5.72;;
23952;SDS011;12163;49.316;6.092;2023-04-24T14:31:10;11.20;;;6.00;;
23952;SDS011;12163;49.316;6.092;2023-04-24T14:33:37;10.88;;;6.20;;
23952;SDS011;12163;49.316;6.092;2023-04-24T14:36:04;11.20;;;6.07;;
23952;SDS011;12163;49.316;6.092;2023-04-24T14:38:32;8.60;;;6.00;;
23952;SDS011;12163;49.316;6.092;2023-04-24T14:40:58;9.45;;;4.55;;
23952;SDS011;12163;49.316;6.092;2023-04-24T14:43:33;4.13;;;2.40;;
23952;SDS011;12163;49.316;6.092;2023-04-24T14:46:02;6.20;;;2.08;;
23952;SDS011;12163;49.316;6.092;2023-04-24T14:48:29;3.42;;;1.67;;
23952;SDS011;12163;49.316;6.092;2023-04-24T14:50:56;2.83;;;1.90;;
23952;SDS011;12163;49.316;6.092;2023-04-24T14:53:23;4.03;;;1.42;;
23952;SDS011;12163;49.316;6.092;2023-04-24T14:55:49;2.08;;;1.48;;
23952;SDS011;12163;49.316;6.092;2023-04-24T14:58:16;3.47;;;1.60;;
23952;SDS011;12163;49.316;6.092;2023-04-24T15:00:43;7.53;;;1.70;;
23952;SDS011;12163;49.316;6.092;2023-04-24T15:03:09;4.97;;;2.00;;
23952;SDS011;12163;49.316;6.092;2023-04-24T15:05:36;4.40;;;2.42;;
23952;SDS011;12163;49.316;6.092;2023-04-24T15:08:04;4.03;;;2.20;;